createdAt,value
2018-11-13T03:12:36.457Z,1.70
2018-11-13T03:14:43.690Z,2.67
2018-11-13T03:16:51.399Z,1.30
2018-11-13T03:18:58.605Z,1.53
2018-11-13T03:21:05.859Z,1.40
2018-11-13T03:23:12.839Z,1.30
2018-11-13T03:25:20.833Z,1.50
2018-11-13T03:27:27.763Z,1.30
2018-11-13T03:29:34.415Z,1.30
2018-11-13T03:31:41.388Z,1.20
2018-11-13T03:33:48.180Z,1.27
2018-11-13T03:35:55.661Z,1.40
2018-11-13T03:38:04.001Z,1.53
2018-11-13T03:40:12.107Z,1.43
2018-11-13T05:42:14.423Z,0.70
2018-11-13T05:44:21.609Z,0.97
2018-11-13T05:46:28.757Z,0.90
2018-11-13T05:48:35.888Z,0.80
2018-11-13T05:50:42.740Z,0.80
2018-11-13T05:52:51.388Z,1.63
2018-11-13T05:54:58.212Z,0.77
2018-11-13T05:57:05.043Z,1.00
2018-11-13T05:59:11.929Z,0.70
2018-11-13T06:01:18.903Z,1.27
2018-11-13T06:03:25.706Z,1.07
2018-11-13T06:05:32.752Z,0.80
2018-11-13T06:07:39.662Z,1.23
2018-11-13T06:09:46.262Z,0.87
2018-11-13T06:11:53.007Z,1.50
2018-11-13T06:14:00.146Z,1.03
2018-11-13T06:16:07.725Z,0.70
2018-11-13T06:18:14.453Z,0.90
2018-11-13T06:20:21.051Z,0.80
2018-11-13T06:22:28.296Z,0.80
2018-11-13T06:24:35.348Z,0.60
2018-11-13T06:26:42.045Z,0.70
2018-11-13T06:28:48.901Z,0.70
2018-11-13T06:30:56.049Z,0.83
2018-11-13T06:33:02.816Z,0.70
2018-11-13T06:35:09.792Z,0.70
2018-11-13T06:37:16.536Z,0.60
2018-11-13T06:39:23.424Z,0.67
2018-11-13T06:41:29.934Z,0.63
2018-11-13T06:43:37.228Z,0.60
2018-11-13T06:45:44.232Z,1.17
2018-11-13T06:47:51.452Z,0.80
2018-11-13T06:49:58.598Z,0.63
2018-11-13T06:52:05.644Z,0.70
2018-11-13T06:54:22.268Z,1.37
2018-11-13T06:56:29.028Z,0.70
2018-11-13T06:58:36.200Z,1.07
2018-11-13T07:00:43.097Z,0.67
2018-11-13T07:02:50.497Z,0.80
2018-11-13T07:04:57.560Z,0.73
2018-11-13T07:07:04.435Z,0.50
2018-11-13T07:09:12.032Z,0.60
2018-11-13T07:11:18.912Z,0.73
2018-11-13T07:13:25.472Z,0.80
2018-11-13T07:15:33.127Z,1.80
2018-11-13T07:17:39.898Z,0.87
2018-11-13T07:19:46.811Z,0.60
2018-11-13T07:21:54.488Z,0.90
2018-11-13T07:24:01.347Z,0.80
2018-11-13T07:26:09.076Z,0.80
2018-11-13T07:28:15.999Z,0.60
2018-11-13T07:30:23.800Z,0.60
2018-11-13T07:32:30.507Z,0.63
2018-11-13T07:34:37.409Z,0.70
2018-11-13T07:36:44.668Z,0.70
2018-11-13T07:38:51.464Z,0.70
2018-11-13T07:40:58.246Z,0.70
2018-11-13T07:43:05.147Z,0.80
2018-11-13T07:45:13.929Z,0.57
2018-11-13T07:47:20.761Z,1.00
2018-11-13T07:49:27.791Z,0.70
2018-11-13T07:51:34.702Z,0.93
2018-11-13T07:53:41.787Z,0.93
2018-11-13T07:55:48.512Z,0.60
2018-11-13T07:57:55.671Z,0.60
2018-11-13T08:00:02.357Z,0.53
2018-11-13T08:02:09.221Z,0.60
2018-11-13T08:04:15.821Z,0.73
2018-11-13T08:06:22.870Z,0.60
2018-11-13T08:08:29.862Z,0.70
2018-11-13T08:10:36.699Z,0.70
2018-11-13T08:12:43.461Z,0.70
2018-11-13T08:14:51.287Z,0.70
2018-11-13T08:16:58.703Z,0.60
2018-11-13T08:19:05.517Z,0.87
2018-11-13T08:21:12.233Z,0.77
2018-11-13T08:23:19.007Z,0.87
2018-11-13T08:25:25.813Z,0.57
2018-11-13T08:27:32.722Z,0.60
2018-11-13T08:29:39.431Z,0.83
2018-11-13T08:31:46.296Z,0.90
2018-11-13T08:33:53.143Z,0.70
2018-11-13T08:35:59.653Z,0.77
2018-11-13T08:38:06.593Z,0.60
2018-11-13T08:40:15.853Z,0.50
2018-11-13T08:42:22.795Z,0.70
2018-11-13T08:44:29.953Z,0.50
2018-11-13T08:46:36.696Z,0.60
2018-11-13T08:48:43.740Z,0.50
2018-11-13T08:50:50.458Z,0.60
2018-11-13T08:52:57.589Z,0.50
2018-11-13T08:55:04.375Z,0.50
2018-11-13T08:57:11.171Z,0.50
2018-11-13T08:59:18.321Z,0.50
2018-11-13T09:01:25.677Z,0.60
2018-11-13T09:03:32.684Z,0.60
2018-11-13T09:05:39.623Z,0.60
2018-11-13T09:07:47.072Z,0.60
2018-11-13T09:09:54.167Z,0.50
2018-11-13T09:12:01.072Z,0.57
2018-11-13T09:14:08.440Z,0.70
2018-11-13T09:16:15.624Z,0.70
2018-11-13T09:18:22.872Z,0.53
2018-11-13T09:20:29.731Z,1.70
2018-11-13T09:22:36.656Z,0.80
2018-11-13T09:24:43.504Z,0.50
2018-11-13T09:26:50.300Z,1.13
2018-11-13T09:28:57.355Z,0.60
2018-11-13T09:31:04.318Z,0.93
2018-11-13T09:33:11.201Z,0.50
2018-11-13T09:35:18.628Z,0.40
2018-11-13T09:37:25.448Z,0.50
2018-11-13T09:39:32.427Z,0.83
2018-11-13T09:41:39.248Z,0.77
2018-11-13T09:43:46.257Z,0.40
2018-11-13T09:45:53.596Z,0.50
2018-11-13T09:48:00.545Z,0.50
2018-11-13T09:50:08.191Z,0.50
2018-11-13T09:52:15.171Z,0.60
2018-11-13T09:54:22.152Z,0.63
2018-11-13T09:56:29.011Z,0.60
2018-11-13T09:58:35.622Z,0.63
2018-11-13T10:00:42.735Z,0.50
2018-11-13T10:02:51.843Z,0.50
2018-11-13T10:04:58.887Z,0.47
2018-11-13T10:07:05.496Z,0.57
2018-11-13T10:09:14.101Z,0.83
2018-11-13T10:11:21.067Z,0.70
2018-11-13T10:13:28.119Z,0.50
2018-11-13T10:15:35.623Z,0.47
2018-11-13T10:17:42.626Z,0.50
2018-11-13T10:19:49.525Z,0.60
2018-11-13T10:21:56.280Z,0.50
2018-11-13T10:24:03.392Z,0.50
2018-11-13T10:26:10.263Z,0.87
2018-11-13T10:28:17.362Z,0.60
2018-11-13T10:30:25.795Z,0.70
2018-11-13T10:32:32.946Z,0.60
2018-11-13T10:34:40.228Z,0.50
2018-11-13T10:36:47.255Z,0.40
2018-11-13T10:38:54.186Z,0.67
2018-11-13T10:41:01.161Z,0.50
2018-11-13T10:43:08.081Z,0.70
2018-11-13T10:45:19.103Z,0.70
2018-11-13T10:47:26.070Z,0.50
2018-11-13T10:49:33.008Z,0.50
2018-11-13T10:51:39.973Z,0.50
2018-11-13T10:53:47.434Z,0.47
2018-11-13T10:55:54.257Z,0.47
2018-11-13T10:58:00.961Z,0.40
2018-11-13T11:00:14.094Z,0.50
2018-11-13T11:02:25.394Z,0.50
2018-11-13T11:04:36.921Z,0.50
2018-11-13T11:06:43.672Z,0.50
2018-11-13T11:08:50.532Z,0.40
2018-11-13T11:10:57.140Z,0.40
2018-11-13T11:13:04.491Z,0.43
2018-11-13T11:15:11.709Z,0.57
2018-11-13T11:17:18.672Z,0.60
2018-11-13T11:19:25.770Z,0.70
2018-11-13T11:21:32.893Z,0.43
2018-11-13T11:23:40.245Z,0.50
2018-11-13T11:25:47.415Z,0.63
2018-11-13T11:27:54.461Z,0.43
2018-11-13T11:30:01.317Z,0.43
2018-11-13T11:32:08.240Z,0.40
2018-11-13T11:34:14.932Z,1.07
2018-11-13T11:36:21.897Z,0.60
2018-11-13T11:38:28.794Z,0.40
2018-11-13T11:40:35.884Z,1.03
2018-11-13T11:42:42.464Z,0.50
2018-11-13T11:44:49.468Z,0.50
2018-11-13T11:46:56.252Z,0.40
2018-11-13T11:49:03.597Z,0.40
2018-11-13T11:51:10.601Z,0.40
2018-11-13T11:53:17.812Z,0.30
2018-11-13T11:55:24.927Z,0.50
2018-11-13T11:57:32.329Z,0.50
2018-11-13T11:59:39.327Z,0.73
2018-11-13T12:01:46.236Z,0.40
2018-11-13T12:03:53.157Z,0.30
2018-11-13T12:05:59.924Z,0.50
2018-11-13T12:08:07.048Z,0.43
2018-11-13T12:10:14.966Z,0.40
2018-11-13T12:12:21.708Z,0.40
2018-11-13T12:14:29.103Z,2.97
2018-11-13T12:16:36.564Z,0.40
2018-11-13T12:18:43.283Z,0.50
2018-11-13T12:20:50.274Z,0.53
2018-11-13T12:22:57.155Z,0.30
2018-11-13T12:25:04.227Z,0.40
2018-11-13T12:27:11.365Z,0.40
2018-11-13T12:29:17.987Z,0.50
2018-11-13T12:31:25.392Z,0.23
2018-11-13T12:33:32.249Z,1.37
2018-11-13T12:35:39.117Z,0.40
2018-11-13T12:37:46.221Z,0.60
2018-11-13T12:39:53.491Z,0.80
2018-11-13T12:42:00.367Z,0.40
2018-11-13T12:44:07.134Z,0.40
2018-11-13T12:46:14.282Z,1.33
2018-11-13T12:48:21.013Z,0.50
2018-11-13T12:50:31.652Z,0.40
2018-11-13T12:52:39.539Z,0.50
2018-11-13T12:54:47.784Z,0.43
2018-11-13T12:56:54.615Z,0.40
2018-11-13T12:59:01.375Z,0.50
2018-11-13T13:01:08.241Z,0.40
2018-11-13T13:03:15.131Z,0.50
2018-11-13T13:05:22.434Z,0.50
2018-11-13T13:07:29.755Z,0.40
2018-11-13T13:09:38.806Z,0.40
2018-11-13T13:11:45.717Z,0.77
2018-11-13T13:13:56.922Z,0.50
2018-11-13T13:16:03.816Z,0.47
2018-11-13T13:18:11.243Z,0.50
2018-11-13T13:20:24.319Z,0.40
2018-11-13T13:22:32.126Z,0.50
2018-11-13T13:24:39.591Z,0.50
2018-11-13T13:26:46.238Z,0.40
2018-11-13T13:28:53.073Z,0.40
2018-11-13T13:31:00.829Z,0.47
2018-11-13T13:33:07.673Z,0.50
2018-11-13T13:35:48.706Z,0.50
2018-11-13T13:37:55.549Z,0.40
2018-11-13T13:40:02.861Z,0.60
2018-11-13T13:42:09.535Z,0.50
2018-11-13T13:44:16.462Z,1.27
2018-11-13T13:46:23.205Z,0.40
2018-11-13T13:48:30.300Z,0.30
2018-11-13T13:50:37.421Z,0.33
2018-11-13T13:52:44.707Z,1.23
2018-11-13T13:54:51.425Z,0.60
2018-11-13T13:56:58.139Z,0.30
2018-11-13T13:59:05.171Z,0.50
2018-11-13T14:01:11.974Z,0.50
2018-11-13T14:03:19.306Z,0.33
2018-11-13T14:05:26.261Z,1.60
2018-11-13T14:07:33.169Z,0.63
2018-11-13T14:09:40.011Z,0.80
2018-11-13T14:11:46.830Z,0.60
2018-11-13T14:13:53.803Z,0.70
2018-11-13T14:16:00.438Z,1.43
2018-11-13T14:18:07.146Z,0.40
2018-11-13T14:20:17.951Z,0.40
2018-11-13T14:22:24.859Z,0.40
2018-11-13T14:24:32.407Z,0.43
2018-11-13T14:26:39.350Z,0.63
2018-11-13T14:28:46.581Z,0.33
2018-11-13T14:30:53.283Z,0.40
2018-11-13T14:33:05.587Z,0.40
2018-11-13T14:35:12.546Z,1.93
2018-11-13T14:37:19.086Z,0.37
2018-11-13T14:39:26.018Z,2.07
2018-11-13T14:41:32.989Z,1.40
2018-11-13T14:43:39.944Z,0.87
2018-11-13T14:45:46.869Z,3.60
2018-11-13T14:47:53.752Z,0.80
2018-11-13T14:50:00.642Z,0.50
2018-11-13T14:52:07.496Z,2.97
2018-11-13T14:54:14.726Z,1.90
2018-11-13T14:56:21.512Z,1.67
2018-11-13T14:58:28.218Z,0.93
2018-11-13T15:00:36.336Z,5.30
2018-11-13T15:02:43.605Z,0.93
2018-11-13T15:04:50.823Z,5.43
2018-11-13T15:06:57.619Z,4.87
2018-11-13T15:09:04.616Z,9.07
2018-11-13T15:11:11.481Z,4.70
2018-11-13T15:13:18.628Z,6.53
2018-11-13T15:15:25.439Z,8.60
2018-11-13T15:17:32.548Z,11.67
2018-11-13T15:19:39.387Z,15.50
2018-11-13T15:21:46.562Z,7.43
2018-11-13T15:23:54.144Z,9.23
2018-11-13T15:26:01.098Z,6.77
2018-11-13T15:28:08.735Z,4.50
2018-11-13T15:30:21.896Z,4.53
2018-11-13T15:32:29.165Z,3.23
2018-11-13T15:34:35.810Z,4.57
2018-11-13T15:36:42.734Z,7.85
2018-11-13T15:38:49.997Z,6.10
2018-11-13T15:40:56.911Z,4.57
2018-11-13T15:43:03.739Z,5.80
2018-11-13T15:45:11.266Z,8.73
2018-11-13T15:47:17.991Z,8.33
2018-11-13T15:49:24.919Z,8.03
2018-11-13T15:51:32.085Z,11.40
2018-11-13T15:53:38.915Z,12.73
2018-11-13T15:55:46.064Z,10.70
2018-11-13T15:57:53.821Z,5.10
2018-11-13T16:00:00.759Z,5.67
2018-11-13T16:02:07.485Z,8.20
2018-11-13T16:04:14.219Z,9.13
2018-11-13T16:06:21.064Z,3.47
2018-11-13T16:08:27.751Z,3.83
2018-11-13T16:10:34.909Z,4.67
2018-11-13T16:12:41.734Z,3.10
2018-11-13T16:14:48.499Z,4.17
2018-11-13T16:16:55.243Z,6.13
2018-11-13T16:19:02.237Z,5.33
2018-11-13T16:21:09.887Z,5.43
2018-11-13T16:23:17.481Z,7.50
2018-11-13T16:25:24.825Z,5.80
2018-11-13T16:27:31.894Z,3.40
2018-11-13T16:29:38.735Z,2.83
2018-11-13T16:31:45.684Z,4.17
2018-11-13T16:33:52.763Z,4.20
2018-11-13T16:35:59.762Z,5.60
2018-11-13T16:38:08.079Z,3.43
2018-11-13T16:40:23.029Z,3.33
2018-11-13T16:42:30.094Z,4.37
2018-11-13T16:44:37.102Z,2.53
2018-11-13T16:46:43.902Z,3.03
2018-11-13T16:48:50.698Z,6.17
2018-11-13T16:50:57.446Z,2.50
2018-11-13T16:53:04.206Z,4.43
2018-11-13T16:55:11.771Z,1.93
2018-11-13T16:57:19.534Z,1.57
2018-11-13T16:59:26.446Z,3.13
2018-11-13T17:01:33.488Z,3.63
2018-11-13T17:03:40.492Z,1.83
2018-11-13T17:05:47.674Z,1.67
2018-11-13T17:07:54.413Z,2.70
2018-11-13T17:10:01.317Z,2.63
2018-11-13T17:12:08.079Z,4.17
2018-11-13T17:14:15.344Z,1.73
2018-11-13T17:16:22.288Z,2.07
2018-11-13T17:18:29.033Z,2.13
2018-11-13T17:20:36.013Z,3.67
2018-11-13T17:22:43.483Z,3.33
2018-11-13T17:24:50.460Z,2.67
2018-11-13T17:26:57.296Z,2.73
2018-11-13T17:29:04.321Z,3.33
2018-11-13T17:31:11.206Z,1.20
2018-11-13T17:33:17.953Z,3.30
2018-11-13T17:35:26.203Z,2.37
2018-11-13T17:37:33.188Z,2.73
2018-11-13T17:39:40.158Z,1.73
2018-11-13T17:41:46.914Z,2.63
2018-11-13T17:43:53.464Z,2.53
2018-11-13T17:46:00.445Z,1.37
2018-11-13T17:48:07.538Z,1.93
2018-11-13T17:50:19.436Z,1.77
2018-11-13T17:52:26.455Z,2.27
2018-11-13T17:54:33.832Z,2.40
2018-11-13T17:56:40.750Z,2.37
2018-11-13T17:58:47.560Z,2.60
2018-11-13T18:00:54.686Z,1.57
2018-11-13T18:03:01.881Z,3.10
2018-11-13T18:05:09.784Z,1.43
2018-11-13T18:07:16.712Z,0.70
2018-11-13T18:09:23.776Z,1.10
2018-11-13T18:11:30.503Z,1.27
2018-11-13T18:13:37.200Z,1.73
2018-11-13T18:15:44.588Z,0.83
2018-11-13T18:17:51.870Z,1.03
2018-11-13T18:19:58.917Z,1.17
2018-11-13T18:22:06.059Z,2.07
2018-11-13T18:24:12.879Z,2.97
2018-11-13T18:26:19.777Z,1.10
2018-11-13T18:28:26.709Z,1.13
2018-11-13T18:30:35.332Z,1.30
2018-11-13T18:32:42.645Z,0.70
2018-11-13T18:34:50.677Z,3.83
2018-11-13T18:36:57.534Z,1.23
2018-11-13T18:39:04.915Z,1.23
2018-11-13T18:41:11.958Z,0.70
2018-11-13T18:43:18.540Z,2.23
2018-11-13T18:45:28.420Z,1.70
2018-11-13T18:47:35.425Z,0.90
2018-11-13T18:49:42.170Z,1.47
2018-11-13T18:51:49.056Z,0.93
2018-11-13T18:53:55.924Z,1.30
2018-11-13T18:56:02.921Z,1.67
2018-11-13T18:58:09.733Z,8.83
2018-11-13T19:00:21.983Z,7.20
2018-11-13T19:02:29.005Z,13.60
2018-11-13T19:04:35.882Z,15.57
2018-11-13T19:06:42.829Z,7.67
2018-11-13T19:08:49.614Z,9.97
2018-11-13T19:10:56.686Z,12.33
2018-11-13T19:13:04.462Z,6.37
2018-11-13T19:15:13.003Z,5.70
2018-11-13T19:17:19.964Z,6.80
2018-11-13T19:19:27.060Z,7.63
2018-11-13T19:21:34.033Z,7.20
2018-11-13T19:23:41.133Z,6.70
2018-11-13T19:25:47.983Z,8.13
2018-11-13T19:27:54.959Z,8.50
2018-11-13T19:30:02.082Z,6.63
2018-11-13T19:32:09.580Z,5.67
2018-11-13T19:34:16.575Z,9.77
2018-11-13T19:36:23.671Z,7.17
2018-11-13T19:38:30.761Z,9.53
2018-11-13T19:40:37.860Z,6.17
2018-11-13T19:42:45.982Z,7.67
2018-11-13T19:44:53.711Z,6.37
2018-11-13T19:47:00.744Z,8.77
2018-11-13T19:49:08.014Z,8.13
2018-11-13T19:51:15.492Z,7.50
2018-11-13T19:53:23.246Z,5.33
2018-11-13T19:55:30.870Z,7.63
2018-11-13T19:57:38.022Z,7.00
2018-11-13T19:59:45.471Z,5.90
2018-11-13T20:01:53.274Z,6.20
2018-11-13T20:04:01.209Z,5.90
2018-11-13T20:06:09.176Z,4.07
2018-11-13T20:08:16.878Z,6.43
2018-11-13T20:10:26.102Z,3.60
2018-11-13T20:12:33.384Z,4.00
2018-11-13T20:14:40.290Z,4.53
2018-11-13T20:16:47.101Z,3.73
2018-11-13T20:18:54.311Z,4.47
2018-11-13T20:21:01.411Z,3.70
2018-11-13T20:23:10.704Z,3.80
2018-11-13T20:25:20.263Z,4.87
2018-11-13T20:27:27.169Z,4.83
2018-11-13T20:29:34.292Z,2.83
2018-11-13T20:31:41.970Z,3.37
2018-11-13T20:33:48.905Z,3.00
2018-11-13T20:35:56.221Z,4.30
2018-11-13T20:38:03.262Z,3.40
2018-11-13T20:40:12.717Z,3.53
2018-11-13T20:42:19.482Z,4.97
2018-11-13T20:44:26.560Z,1.93
2018-11-13T20:46:34.034Z,3.20
2018-11-13T20:48:40.857Z,3.10
2018-11-13T20:50:47.745Z,3.73
2018-11-13T20:52:54.758Z,3.10
2018-11-13T20:55:02.511Z,2.67
2018-11-13T20:57:09.968Z,3.27
2018-11-13T20:59:16.833Z,2.60
2018-11-13T21:01:23.674Z,3.93
2018-11-13T21:03:30.765Z,4.07
2018-11-13T21:05:38.510Z,2.80
2018-11-13T21:07:45.275Z,2.87
2018-11-13T21:09:52.881Z,3.43
2018-11-13T21:11:59.700Z,4.73
2018-11-13T21:14:06.674Z,2.23
2018-11-13T21:16:13.779Z,3.00
2018-11-13T21:18:20.647Z,3.47
2018-11-13T21:20:27.459Z,3.00
2018-11-13T21:22:34.165Z,4.43
2018-11-13T21:24:42.214Z,3.40
2018-11-13T21:26:48.990Z,4.30
2018-11-13T21:28:55.995Z,2.20
2018-11-13T21:31:02.846Z,3.57
2018-11-13T21:33:09.946Z,2.97
2018-11-13T21:35:17.151Z,3.43
2018-11-13T21:37:24.149Z,4.13
2018-11-13T21:39:31.160Z,3.70
2018-11-13T21:41:37.938Z,2.77
2018-11-13T21:43:44.590Z,4.10
2018-11-13T21:45:51.531Z,2.20
2018-11-13T21:47:58.617Z,3.40
2018-11-13T21:50:06.399Z,3.90
2018-11-13T21:52:13.354Z,4.17
2018-11-13T21:54:20.379Z,4.17
2018-11-13T21:56:27.361Z,3.83
2018-11-13T21:58:34.263Z,2.97
2018-11-13T22:00:41.249Z,3.90
2018-11-13T22:02:50.038Z,3.13
2018-11-13T22:04:57.640Z,1.43
2018-11-13T22:07:04.426Z,2.37
2018-11-13T22:09:12.893Z,2.03
2018-11-13T22:11:20.047Z,2.33
2018-11-13T22:13:27.168Z,3.20
2018-11-13T22:15:37.745Z,2.10
2018-11-13T22:17:48.756Z,1.80
2018-11-13T22:22:09.006Z,3.27
2018-11-13T22:24:25.549Z,1.80
2018-11-13T22:28:46.902Z,2.40
2018-11-13T22:35:29.471Z,4.07
2018-11-13T22:37:40.834Z,3.53
2018-11-13T22:42:09.321Z,1.93
2018-11-13T22:49:24.165Z,2.37
2018-11-13T23:01:16.768Z,6.07
2018-11-13T23:15:23.258Z,2.30
2018-11-13T23:27:45.989Z,3.07
2018-11-13T23:32:21.600Z,21.07
2018-11-13T23:44:01.787Z,5.57
